createdAt,value
2018-09-03T00:00:35.365Z,101994.95
2018-09-03T00:03:03.946Z,101998.70
2018-09-03T00:05:32.531Z,101998.50
2018-09-03T00:08:01.103Z,101991.42
2018-09-03T00:10:29.689Z,101979.57
2018-09-03T00:12:58.248Z,101986.28
2018-09-03T00:15:26.841Z,101980.59
2018-09-03T00:17:55.404Z,101978.70
2018-09-03T00:20:24.023Z,101982.27
2018-09-03T00:22:52.600Z,101979.53
2018-09-03T00:25:21.223Z,101978.19
2018-09-03T00:27:49.800Z,101982.86
2018-09-03T00:30:18.399Z,101972.48
2018-09-03T00:32:52.296Z,101970.80
2018-09-03T00:35:26.314Z,101969.55
2018-09-03T00:38:00.062Z,101970.19
2018-09-03T00:41:31.778Z,101972.03
2018-09-03T00:44:05.741Z,101970.31
2018-09-03T00:46:39.477Z,101967.79
2018-09-03T00:49:08.066Z,101966.84
2018-09-03T00:51:36.666Z,101977.05
2018-09-03T00:54:05.323Z,101966.53
2018-09-03T00:56:33.965Z,101968.45
2018-09-03T00:59:02.548Z,101963.85
2018-09-03T01:01:31.139Z,101963.41
2018-09-03T01:03:59.733Z,101956.38
2018-09-03T01:06:28.348Z,101955.11
2018-09-03T01:08:56.926Z,101948.84
2018-09-03T01:11:26.493Z,101957.97
2018-09-03T01:13:56.194Z,101954.03
2018-09-03T01:16:24.881Z,101951.07
2018-09-03T01:18:55.812Z,101950.64
2018-09-03T01:21:25.283Z,101944.98
2018-09-03T01:23:54.273Z,101936.87
2018-09-03T01:26:22.835Z,101942.26
2018-09-03T01:28:51.464Z,101930.47
2018-09-03T01:31:21.623Z,101938.08
2018-09-03T01:33:52.005Z,101933.09
2018-09-03T01:36:20.990Z,101934.23
2018-09-03T01:38:49.616Z,101938.92
2018-09-03T01:41:19.015Z,101932.02
2018-09-03T01:43:48.145Z,101934.03
2018-09-03T01:46:16.721Z,101928.81
2018-09-03T01:48:45.315Z,101929.66
2018-09-03T01:51:13.889Z,101926.05
2018-09-03T01:53:42.481Z,101915.75
2018-09-03T01:56:11.061Z,101923.42
2018-09-03T01:58:39.637Z,101915.58
2018-09-03T02:01:08.218Z,101918.25
2018-09-03T02:03:36.794Z,101921.98
2018-09-03T02:06:05.395Z,101918.92
2018-09-03T02:08:34.016Z,101927.98
2018-09-03T02:11:02.589Z,101929.45
2018-09-03T02:13:32.457Z,101929.16
2018-09-03T02:16:01.015Z,101932.86
2018-09-03T02:18:29.584Z,101922.52
2018-09-03T02:20:58.214Z,101930.60
2018-09-03T02:23:26.796Z,101929.30
2018-09-03T02:25:55.385Z,101919.73
2018-09-03T02:28:23.989Z,101919.59
2018-09-03T02:30:52.576Z,101924.67
2018-09-03T02:33:21.179Z,101930.83
2018-09-03T02:35:49.761Z,101927.30
2018-09-03T02:38:18.383Z,101918.80
2018-09-03T02:40:46.967Z,101917.48
2018-09-03T02:43:15.560Z,101919.20
2018-09-03T02:45:44.154Z,101915.66
2018-09-03T02:48:12.743Z,101909.91
2018-09-03T02:50:41.316Z,101913.00
2018-09-03T02:53:09.932Z,101906.09
2018-09-03T02:55:38.504Z,101900.03
2018-09-03T02:58:07.138Z,101898.95
2018-09-03T03:00:35.717Z,101902.02
2018-09-03T03:03:04.312Z,101897.36
2018-09-03T03:05:32.908Z,101902.35
2018-09-03T03:08:01.521Z,101894.50
2018-09-03T03:10:30.088Z,101889.12
2018-09-03T03:12:58.699Z,101889.33
2018-09-03T03:15:27.289Z,101893.08
2018-09-03T03:17:55.890Z,101886.17
2018-09-03T03:20:24.467Z,101893.41
2018-09-03T03:22:53.079Z,101891.25
2018-09-03T03:25:21.703Z,101884.67
2018-09-03T03:27:50.287Z,101878.07
2018-09-03T03:30:18.893Z,101879.52
2018-09-03T03:32:47.475Z,101875.70
2018-09-03T03:35:16.160Z,101875.17
2018-09-03T03:37:48.686Z,101874.09
2018-09-03T03:40:18.333Z,101872.41
2018-09-03T03:42:46.934Z,101870.78
2018-09-03T03:45:15.546Z,101873.64
2018-09-03T03:47:44.139Z,101870.73
2018-09-03T03:50:12.744Z,101866.69
2018-09-03T03:52:41.377Z,101870.83
2018-09-03T03:55:10.156Z,101870.29
2018-09-03T03:57:38.685Z,101864.52
2018-09-03T04:00:07.586Z,101866.84
2018-09-03T04:02:36.169Z,101866.09
2018-09-03T04:05:04.828Z,101862.48
2018-09-03T04:07:33.404Z,101860.77
2018-09-03T04:10:02.005Z,101863.03
2018-09-03T04:12:30.582Z,101858.88
2018-09-03T04:14:59.249Z,101860.77
2018-09-03T04:17:27.842Z,101863.53
2018-09-03T04:20:05.804Z,101861.65
2018-09-03T04:22:34.784Z,101855.73
2018-09-03T04:25:04.133Z,101855.73
2018-09-03T04:27:32.716Z,101855.39
2018-09-03T04:30:01.345Z,101856.33
2018-09-03T04:32:29.930Z,101853.56
2018-09-03T04:34:58.518Z,101849.21
2018-09-03T04:37:27.131Z,101856.13
2018-09-03T04:39:56.290Z,101853.86
2018-09-03T04:42:24.861Z,101853.12
2018-09-03T04:44:53.486Z,101850.35
2018-09-03T04:47:22.070Z,101853.86
2018-09-03T04:49:50.732Z,101848.67
2018-09-03T04:52:19.443Z,101842.30
2018-09-03T04:54:48.080Z,101851.88
2018-09-03T04:57:16.684Z,101852.57
2018-09-03T04:59:45.311Z,101846.31
2018-09-03T05:02:13.973Z,101854.55
2018-09-03T05:04:42.619Z,101854.66
2018-09-03T05:07:11.191Z,101857.36
2018-09-03T05:09:39.841Z,101851.97
2018-09-03T05:12:08.430Z,101855.58
2018-09-03T05:14:37.378Z,101856.32
2018-09-03T05:17:06.366Z,101854.94
2018-09-03T05:19:34.982Z,101851.64
2018-09-03T05:22:03.561Z,101848.04
2018-09-03T05:24:32.168Z,101847.20
2018-09-03T05:27:00.789Z,101846.98
2018-09-03T05:29:29.426Z,101850.05
2018-09-03T05:31:58.011Z,101850.05
2018-09-03T05:34:26.635Z,101851.83
2018-09-03T05:36:55.204Z,101853.27
2018-09-03T05:39:23.801Z,101849.02
2018-09-03T05:41:52.385Z,101852.08
2018-09-03T05:44:20.958Z,101846.02
2018-09-03T05:46:49.563Z,101841.03
2018-09-03T05:49:18.154Z,101841.57
2018-09-03T05:51:46.772Z,101845.17
2018-09-03T05:54:15.334Z,101847.39
2018-09-03T05:56:43.929Z,101848.03
2018-09-03T05:59:12.537Z,101847.16
2018-09-03T06:01:41.172Z,101846.55
2018-09-03T06:04:09.783Z,101847.39
2018-09-03T06:06:38.386Z,101848.78
2018-09-03T06:09:09.217Z,101848.88
2018-09-03T06:11:37.877Z,101847.88
2018-09-03T06:14:06.471Z,101848.82
2018-09-03T06:16:35.119Z,101848.97
2018-09-03T06:19:03.690Z,101850.66
2018-09-03T06:21:32.296Z,101856.72
2018-09-03T06:24:00.989Z,101860.87
2018-09-03T06:26:29.613Z,101852.27
2018-09-03T06:28:58.191Z,101860.63
2018-09-03T06:31:26.807Z,101859.43
2018-09-03T06:33:55.405Z,101854.77
2018-09-03T06:36:24.022Z,101845.81
2018-09-03T06:38:52.664Z,101855.36
2018-09-03T06:41:21.326Z,101854.75
2018-09-03T06:43:49.924Z,101858.45
2018-09-03T06:46:19.017Z,101862.20
2018-09-03T06:48:48.005Z,101855.73
2018-09-03T06:51:16.625Z,101850.09
2018-09-03T06:53:45.251Z,101847.84
2018-09-03T06:56:13.844Z,101845.70
2018-09-03T06:58:42.738Z,101842.26
2018-09-03T07:01:11.537Z,101841.55
2018-09-03T07:03:40.153Z,101836.16
2018-09-03T07:06:08.770Z,101846.34
2018-09-03T07:08:38.167Z,101845.40
2018-09-03T07:11:07.170Z,101839.49
2018-09-03T07:13:35.857Z,101838.16
2018-09-03T07:16:04.477Z,101836.08
2018-09-03T07:18:33.050Z,101833.17
2018-09-03T07:21:01.657Z,101824.58
2018-09-03T07:23:30.248Z,101824.36
2018-09-03T07:25:58.854Z,101827.48
2018-09-03T07:28:27.417Z,101830.88
2018-09-03T07:30:56.320Z,101830.41
2018-09-03T07:33:24.882Z,101830.92
2018-09-03T07:35:53.518Z,101828.31
2018-09-03T07:38:22.135Z,101834.05
2018-09-03T07:40:50.700Z,101830.53
2018-09-03T07:43:19.325Z,101825.31
2018-09-03T07:45:47.892Z,101829.09
2018-09-03T07:48:16.480Z,101817.63
2018-09-03T07:50:45.038Z,101818.70
2018-09-03T07:53:13.638Z,101817.48
2018-09-03T07:55:42.209Z,101815.81
2018-09-03T07:58:10.798Z,101812.70
2018-09-03T08:00:39.381Z,101819.90
2018-09-03T08:03:07.981Z,101806.75
2018-09-03T08:05:36.568Z,101805.64
2018-09-03T08:08:05.312Z,101806.83
2018-09-03T08:10:33.861Z,101805.88
2018-09-03T08:13:02.524Z,101803.02
2018-09-03T08:15:31.066Z,101801.59
2018-09-03T08:17:59.687Z,101797.27
2018-09-03T08:20:28.249Z,101794.62
2018-09-03T08:22:56.849Z,101795.52
2018-09-03T08:25:25.650Z,101793.37
2018-09-03T08:27:54.324Z,101801.34
2018-09-03T08:30:22.902Z,101798.16
2018-09-03T08:32:51.498Z,101801.07
2018-09-03T08:35:20.050Z,101797.77
2018-09-03T08:37:48.645Z,101793.95
2018-09-03T08:40:17.301Z,101789.84
2018-09-03T08:42:45.906Z,101791.22
2018-09-03T08:45:14.526Z,101794.92
2018-09-03T08:47:43.109Z,101794.78
2018-09-03T08:50:11.698Z,101788.66
2018-09-03T08:52:40.301Z,101790.08
2018-09-03T08:55:08.881Z,101790.05
2018-09-03T08:57:37.455Z,101784.73
2018-09-03T09:00:06.433Z,101783.08
2018-09-03T09:02:35.049Z,101785.59
2018-09-03T09:05:03.759Z,101785.27
2018-09-03T09:07:32.371Z,101783.08
2018-09-03T09:10:00.987Z,101773.05
2018-09-03T09:12:29.560Z,101769.70
2018-09-03T09:14:58.125Z,101770.83
2018-09-03T09:17:26.723Z,101769.97
2018-09-03T09:19:55.312Z,101759.90
2018-09-03T09:22:23.885Z,101756.83
2018-09-03T09:24:52.536Z,101762.16
2018-09-03T09:27:21.112Z,101762.44
2018-09-03T09:29:49.672Z,101758.52
2018-09-03T09:32:18.416Z,101758.54
2018-09-03T09:34:47.265Z,101763.79
2018-09-03T09:37:15.925Z,101760.41
2018-09-03T09:39:45.017Z,101758.39
2018-09-03T09:42:13.571Z,101761.23
2018-09-03T09:44:42.174Z,101754.22
2018-09-03T09:47:10.785Z,101752.84
2018-09-03T09:49:39.420Z,101749.42
2018-09-03T09:52:07.998Z,101747.72
2018-09-03T09:54:36.589Z,101748.59
2018-09-03T09:57:05.361Z,101748.81
2018-09-03T09:59:34.012Z,101743.30
2018-09-03T10:02:02.750Z,101740.23
2018-09-03T10:04:31.374Z,101741.38
2018-09-03T10:06:59.969Z,101743.13
2018-09-03T10:09:28.579Z,101741.77
2018-09-03T10:11:57.142Z,101732.48
2018-09-03T10:14:25.745Z,101729.11
2018-09-03T10:16:54.360Z,101728.39
2018-09-03T10:19:22.953Z,101736.59
2018-09-03T10:21:51.545Z,101730.33
2018-09-03T10:24:20.198Z,101724.61
2018-09-03T10:26:48.821Z,101719.41
2018-09-03T10:29:17.465Z,101715.88
2018-09-03T10:31:46.093Z,101712.91
2018-09-03T10:34:14.681Z,101711.13
2018-09-03T10:36:43.580Z,101710.75
2018-09-03T10:39:12.205Z,101714.80
2018-09-03T10:41:40.758Z,101705.13
2018-09-03T10:44:09.437Z,101710.05
2018-09-03T10:46:38.020Z,101714.83
2018-09-03T10:49:06.625Z,101704.23
2018-09-03T10:51:35.211Z,101701.24
2018-09-03T10:54:03.835Z,101698.89
2018-09-03T10:56:32.440Z,101697.59
2018-09-03T10:59:01.053Z,101697.72
2018-09-03T11:01:29.659Z,101690.24
2018-09-03T11:03:58.262Z,101686.88
2018-09-03T11:06:26.837Z,101681.14
2018-09-03T11:08:55.444Z,101674.07
2018-09-03T11:11:24.033Z,101684.42
2018-09-03T11:13:52.630Z,101673.55
2018-09-03T11:16:21.265Z,101673.20
2018-09-03T11:18:49.861Z,101668.41
2018-09-03T11:21:18.622Z,101674.51
2018-09-03T11:23:47.091Z,101675.12
2018-09-03T11:26:15.691Z,101668.38
2018-09-03T11:28:44.383Z,101667.63
2018-09-03T11:31:12.977Z,101668.76
2018-09-03T11:33:41.588Z,101671.03
2018-09-03T11:36:10.172Z,101660.92
2018-09-03T11:38:38.781Z,101654.73
2018-09-03T11:41:07.482Z,101663.04
2018-09-03T11:43:36.070Z,101648.30
2018-09-03T11:46:04.739Z,101654.23
2018-09-03T11:48:33.315Z,101653.77
2018-09-03T11:51:01.930Z,101650.78
2018-09-03T11:53:30.562Z,101647.65
2018-09-03T11:55:59.153Z,101652.28
2018-09-03T11:58:27.791Z,101643.86
2018-09-03T12:00:59.993Z,101645.84
2018-09-03T12:03:28.600Z,101640.70
2018-09-03T12:05:57.259Z,101639.17
2018-09-03T12:08:25.836Z,101638.66
2018-09-03T12:10:54.439Z,101639.33
2018-09-03T12:13:23.014Z,101633.03
2018-09-03T12:16:24.242Z,101631.50
2018-09-03T12:18:54.684Z,101634.28
2018-09-03T12:21:23.279Z,101638.04
2018-09-03T12:23:51.853Z,101627.63
2018-09-03T12:26:20.491Z,101631.60
2018-09-03T12:28:49.186Z,101631.55
2018-09-03T12:31:17.862Z,101630.73
2018-09-03T12:33:47.367Z,101622.30
2018-09-03T12:36:15.968Z,101620.41
2018-09-03T12:38:44.533Z,101625.59
2018-09-03T12:41:13.201Z,101621.56
2018-09-03T12:43:41.836Z,101633.63
2018-09-03T12:46:10.437Z,101626.89
2018-09-03T12:48:39.015Z,101623.11
2018-09-03T12:51:07.654Z,101624.88
2018-09-03T12:53:36.238Z,101617.61
2018-09-03T12:56:04.912Z,101609.63
2018-09-03T12:58:33.586Z,101600.11
2018-09-03T13:01:02.160Z,101605.81
2018-09-03T13:03:30.722Z,101598.92
2018-09-03T13:05:59.313Z,101600.98
2018-09-03T13:08:27.869Z,101606.92
2018-09-03T13:10:56.477Z,101606.63
2018-09-03T13:13:25.056Z,101610.83
2018-09-03T13:15:53.678Z,101603.78
2018-09-03T13:18:22.256Z,101602.57
2018-09-03T13:20:50.859Z,101606.25
2018-09-03T13:23:19.439Z,101605.50
2018-09-03T13:25:48.056Z,101607.28
2018-09-03T13:28:16.620Z,101605.97
2018-09-03T13:30:45.251Z,101604.47
2018-09-03T13:33:13.803Z,101601.09
2018-09-03T13:35:42.380Z,101605.00
2018-09-03T13:38:10.948Z,101603.42
2018-09-03T13:40:39.961Z,101596.47
2018-09-03T13:43:08.597Z,101592.30
2018-09-03T13:45:37.202Z,101590.48
2018-09-03T13:48:05.847Z,101592.82
2018-09-03T13:50:34.413Z,101583.58
2018-09-03T13:53:02.988Z,101584.98
2018-09-03T13:55:31.589Z,101587.16
2018-09-03T13:58:00.142Z,101585.21
2018-09-03T14:00:28.734Z,101584.12
2018-09-03T14:02:57.313Z,101580.50
2018-09-03T14:05:25.921Z,101570.76
2018-09-03T14:07:54.500Z,101569.00
2018-09-03T14:10:23.089Z,101568.75
2018-09-03T14:12:51.649Z,101573.49
2018-09-03T14:15:20.262Z,101569.41
2018-09-03T14:17:48.808Z,101576.80
2018-09-03T14:20:17.360Z,101569.28
2018-09-03T14:22:45.961Z,101566.21
2018-09-03T14:25:14.563Z,101561.31
2018-09-03T14:27:43.254Z,101570.53
2018-09-03T14:30:11.815Z,101558.85
2018-09-03T14:32:40.432Z,101563.98
2018-09-03T14:35:09.291Z,101557.92
2018-09-03T14:37:37.885Z,101556.00
2018-09-03T14:40:06.544Z,101555.84
2018-09-03T14:42:35.165Z,101555.17
2018-09-03T14:45:03.756Z,101561.68
2018-09-03T14:47:32.324Z,101559.13
2018-09-03T14:50:00.935Z,101561.63
2018-09-03T14:52:29.565Z,101558.98
2018-09-03T14:54:58.135Z,101555.34
2018-09-03T14:57:26.744Z,101555.09
2018-09-03T14:59:55.396Z,101556.30
2018-09-03T15:02:24.037Z,101549.30
2018-09-03T15:04:56.078Z,101552.40
2018-09-03T15:07:24.682Z,101553.62
2018-09-03T15:09:53.412Z,101549.42
2018-09-03T15:12:22.014Z,101545.61
2018-09-03T15:14:50.601Z,101543.92
2018-09-03T15:17:19.219Z,101543.53
2018-09-03T15:19:47.776Z,101547.45
2018-09-03T15:22:16.370Z,101539.30
2018-09-03T15:24:44.994Z,101544.20
2018-09-03T15:27:13.585Z,101544.20
2018-09-03T15:29:42.156Z,101549.44
2018-09-03T15:32:10.782Z,101544.93
2018-09-03T15:34:39.375Z,101541.41
2018-09-03T15:37:07.980Z,101543.91
2018-09-03T15:39:36.576Z,101542.63
2018-09-03T15:42:05.251Z,101542.41
2018-09-03T15:44:33.848Z,101533.39
2018-09-03T15:47:02.554Z,101535.91
2018-09-03T15:49:31.150Z,101538.94
2018-09-03T15:51:59.814Z,101530.46
2018-09-03T15:54:28.373Z,101534.65
2018-09-03T15:56:56.975Z,101533.84
2018-09-03T15:59:25.590Z,101531.95
2018-09-03T16:01:54.190Z,101530.95
2018-09-03T16:04:22.781Z,101536.64
2018-09-03T16:06:51.376Z,101535.31
2018-09-03T16:09:19.974Z,101533.65
2018-09-03T16:11:48.704Z,101532.77
2018-09-03T16:14:29.063Z,101531.17
2018-09-03T16:16:57.630Z,101529.81
2018-09-03T16:19:26.204Z,101529.88
2018-09-03T16:21:54.791Z,101526.33
2018-09-03T16:24:23.418Z,101525.25
2018-09-03T16:26:52.017Z,101520.59
2018-09-03T16:29:20.607Z,101519.83
2018-09-03T16:31:49.210Z,101518.39
2018-09-03T16:34:17.776Z,101519.52
2018-09-03T16:36:46.369Z,101518.39
2018-09-03T16:39:14.939Z,101516.51
2018-09-03T16:41:43.540Z,101508.98
2018-09-03T16:44:12.123Z,101512.98
2018-09-03T16:46:40.722Z,101522.79
2018-09-03T16:49:09.389Z,101515.20
2018-09-03T16:51:37.918Z,101519.94
2018-09-03T16:54:06.601Z,101519.99
2018-09-03T16:56:35.188Z,101524.49
2018-09-03T16:59:03.773Z,101516.92
2018-09-03T17:01:32.470Z,101525.64
2018-09-03T17:04:00.987Z,101522.32
2018-09-03T17:06:29.545Z,101524.11
2018-09-03T17:08:58.158Z,101521.32
2018-09-03T17:11:26.795Z,101523.05
2018-09-03T17:13:55.391Z,101521.39
2018-09-03T17:16:23.960Z,101523.68
2018-09-03T17:18:52.617Z,101517.28
2018-09-03T17:21:21.200Z,101527.38
2018-09-03T17:23:49.788Z,101531.02
2018-09-03T17:26:18.396Z,101534.91
2018-09-03T17:28:47.029Z,101532.42
2018-09-03T17:31:15.607Z,101536.88
2018-09-03T17:33:44.185Z,101541.35
2018-09-03T17:36:12.761Z,101550.53
2018-09-03T17:38:41.446Z,101545.52
2018-09-03T17:41:10.014Z,101551.31
2018-09-03T17:43:38.598Z,101554.64
2018-09-03T17:46:07.171Z,101567.17
2018-09-03T17:48:35.796Z,101567.11
2018-09-03T17:51:04.426Z,101566.50
2018-09-03T17:53:33.032Z,101565.89
2018-09-03T17:56:01.601Z,101570.03
2018-09-03T17:58:30.243Z,101569.94
2018-09-03T18:00:58.866Z,101564.59
2018-09-03T18:03:27.492Z,101569.84
2018-09-03T18:05:56.109Z,101571.46
2018-09-03T18:08:25.154Z,101572.81
2018-09-03T18:10:53.715Z,101572.45
2018-09-03T18:13:22.307Z,101564.81
2018-09-03T18:15:50.875Z,101566.92
2018-09-03T18:18:19.492Z,101562.34
2018-09-03T18:20:48.083Z,101571.14
2018-09-03T18:23:16.670Z,101574.13
2018-09-03T18:25:45.277Z,101575.17
2018-09-03T18:28:13.876Z,101576.73
2018-09-03T18:30:42.513Z,101579.74
2018-09-03T18:33:11.104Z,101580.19
2018-09-03T18:35:39.697Z,101585.70
2018-09-03T18:38:08.288Z,101584.78
2018-09-03T18:40:36.887Z,101593.50
2018-09-03T18:43:05.524Z,101584.70
2018-09-03T18:45:34.114Z,101589.00
2018-09-03T18:48:02.705Z,101590.53
2018-09-03T18:50:31.290Z,101596.31
2018-09-03T18:52:59.901Z,101592.59
2018-09-03T18:55:28.505Z,101596.47
2018-09-03T18:57:57.083Z,101597.22
2018-09-03T19:00:25.776Z,101601.03
2018-09-03T19:02:54.346Z,101602.87
2018-09-03T19:05:22.953Z,101605.30
2018-09-03T19:07:51.533Z,101601.53
2018-09-03T19:10:20.134Z,101605.31
2018-09-03T19:12:48.721Z,101609.37
2018-09-03T19:15:17.329Z,101608.15
2018-09-03T19:17:45.909Z,101602.23
2018-09-03T19:20:14.525Z,101604.91
2018-09-03T19:22:43.096Z,101608.73
2018-09-03T19:25:11.706Z,101603.70
2018-09-03T19:27:40.291Z,101600.82
2018-09-03T19:30:09.009Z,101608.73
2018-09-03T19:32:37.630Z,101603.27
2018-09-03T19:35:06.247Z,101610.36
2018-09-03T19:37:34.819Z,101609.72
2018-09-03T19:40:03.480Z,101605.77
2018-09-03T19:42:32.047Z,101611.86
2018-09-03T19:45:00.710Z,101611.78
2018-09-03T19:47:29.289Z,101606.95
2018-09-03T19:49:57.886Z,101618.14
2018-09-03T19:52:26.448Z,101609.94
2018-09-03T19:54:55.044Z,101620.03
2018-09-03T19:57:23.605Z,101614.69
2018-09-03T19:59:52.237Z,101616.56
2018-09-03T20:02:20.801Z,101615.95
2018-09-03T20:04:49.398Z,101617.81
2018-09-03T20:07:17.989Z,101616.40
2018-09-03T20:09:46.613Z,101617.43
2018-09-03T20:12:15.247Z,101614.23
2018-09-03T20:14:43.959Z,101614.14
2018-09-03T20:17:12.615Z,101617.33
2018-09-03T20:19:41.177Z,101621.97
2018-09-03T20:22:15.405Z,101619.64
2018-09-03T20:24:44.087Z,101626.75
2018-09-03T20:27:13.009Z,101624.14
2018-09-03T20:29:41.789Z,101621.81
2018-09-03T20:32:10.406Z,101624.41
2018-09-03T20:34:39.194Z,101624.59
2018-09-03T20:37:08.454Z,101624.95
2018-09-03T20:39:37.189Z,101622.63
2018-09-03T20:42:05.823Z,101628.56
2018-09-03T20:44:34.552Z,101622.38
2018-09-03T20:47:03.133Z,101627.25
2018-09-03T20:49:31.756Z,101619.42
2018-09-03T20:52:01.172Z,101617.38
2018-09-03T20:54:29.756Z,101620.61
2018-09-03T20:56:58.363Z,101622.47
2018-09-03T20:59:26.982Z,101621.84
2018-09-03T21:01:55.632Z,101623.19
2018-09-03T21:04:24.225Z,101621.44
2018-09-03T21:06:52.900Z,101623.51
2018-09-03T21:09:21.529Z,101625.02
2018-09-03T21:11:50.141Z,101623.78
2018-09-03T21:14:18.729Z,101625.58
2018-09-03T21:16:47.326Z,101626.59
2018-09-03T21:19:15.922Z,101627.91
2018-09-03T21:21:44.604Z,101622.46
2018-09-03T21:24:13.160Z,101626.73
2018-09-03T21:26:41.786Z,101620.97
2018-09-03T21:29:10.422Z,101628.34
2018-09-03T21:31:39.040Z,101629.34
2018-09-03T21:34:07.647Z,101628.42
2018-09-03T21:36:36.240Z,101625.88
2018-09-03T21:39:05.080Z,101626.03
2018-09-03T21:41:33.766Z,101630.13
2018-09-03T21:44:02.816Z,101624.98
2018-09-03T21:46:31.426Z,101626.83
2018-09-03T21:49:00.019Z,101638.50
2018-09-03T21:51:28.632Z,101636.69
2018-09-03T21:53:57.205Z,101630.77
2018-09-03T21:56:25.814Z,101630.91
2018-09-03T21:58:54.438Z,101634.69
2018-09-03T22:01:23.062Z,101633.23
2018-09-03T22:03:51.646Z,101636.20
2018-09-03T22:06:20.246Z,101636.14
2018-09-03T22:08:49.221Z,101638.82
2018-09-03T22:11:17.819Z,101634.83
2018-09-03T22:13:46.397Z,101635.83
2018-09-03T22:16:15.018Z,101638.95
2018-09-03T22:18:43.615Z,101638.81
2018-09-03T22:21:12.257Z,101640.55
2018-09-03T22:23:40.852Z,101645.08
2018-09-03T22:26:09.494Z,101640.25
2018-09-03T22:28:38.074Z,101641.24
2018-09-03T22:31:06.718Z,101636.17
2018-09-03T22:33:35.282Z,101639.25
2018-09-03T22:36:03.892Z,101636.79
2018-09-03T22:38:32.499Z,101633.87
2018-09-03T22:41:01.100Z,101642.30
2018-09-03T22:43:29.679Z,101638.22
2018-09-03T22:45:58.292Z,101642.80
2018-09-03T22:48:26.900Z,101642.40
2018-09-03T22:50:55.619Z,101640.63
2018-09-03T22:53:24.222Z,101636.09
2018-09-03T22:55:52.803Z,101635.25
2018-09-03T22:58:21.401Z,101629.43
2018-09-03T23:00:49.989Z,101632.70
2018-09-03T23:03:18.589Z,101628.16
2018-09-03T23:05:47.204Z,101625.01
2018-09-03T23:08:15.787Z,101619.73
2018-09-03T23:10:44.361Z,101625.25
2018-09-03T23:13:12.964Z,101619.73
2018-09-03T23:15:45.664Z,101620.80
2018-09-03T23:18:14.289Z,101620.71
2018-09-03T23:20:42.872Z,101613.42
2018-09-03T23:23:11.485Z,101615.09
2018-09-03T23:25:40.087Z,101610.42
2018-09-03T23:28:08.685Z,101608.30
2018-09-03T23:30:37.274Z,101612.13
2018-09-03T23:33:06.053Z,101607.06
2018-09-03T23:35:34.637Z,101610.80
2018-09-03T23:38:03.238Z,101607.95
2018-09-03T23:40:31.826Z,101611.24
2018-09-03T23:43:00.476Z,101610.64
2018-09-03T23:45:29.066Z,101610.00
2018-09-03T23:47:57.723Z,101606.41
2018-09-03T23:50:26.303Z,101603.02
2018-09-03T23:52:55.174Z,101600.70
2018-09-03T23:55:23.858Z,101600.63
2018-09-03T23:57:52.471Z,101602.45
